Time;durP1;ratioP1;P1;durP2;ratioP2;P2;SDS_P1;SDS_P2;PMS_P1;PMS_P2;Temp;Humidity;BMP_temperature;BMP_pressure;BME280_temperature;BME280_humidity;BME280_pressure;Samples;Min_cycle;Max_cycle;Signal;HPM_P1;HPM_P2
2021/05/28 00:00:05;;;;;;;5.50;3.20;;;;;;;10.07;100.00;99575.41;10457861;28;20175;-80
2021/05/28 00:05:24;;;;;;;4.10;3.70;;;;;;;10.10;100.00;99571.84;10455624;28;20207;-77
2021/05/28 00:10:43;;;;;;;6.47;3.23;;;;;;;10.07;100.00;99572.66;10457432;28;20180;-78
2021/05/28 00:16:03;;;;;;;7.73;4.50;;;;;;;10.00;100.00;99576.13;10457256;28;20207;-78
2021/05/28 00:21:22;;;;;;;3.90;2.90;;;;;;;9.77;100.00;99580.28;10454707;28;20202;-76
2021/05/28 00:26:41;;;;;;;8.73;4.03;;;;;;;9.67;100.00;99587.25;10456721;28;20171;-78
2021/05/28 00:32:02;;;;;;;4.47;4.07;;;;;;;9.92;100.00;99585.47;10456659;28;20179;-76
2021/05/28 00:37:21;;;;;;;6.50;3.30;;;;;;;9.92;100.00;99592.94;10455264;28;20175;-75
2021/05/28 00:42:40;;;;;;;8.13;3.43;;;;;;;9.89;100.00;99589.00;10455907;28;20207;-76
2021/05/28 00:47:59;;;;;;;7.40;3.67;;;;;;;9.74;100.00;99579.06;10456255;28;20176;-75
2021/05/28 00:53:19;;;;;;;3.87;3.50;;;;;;;9.56;100.00;99586.41;10454679;28;20183;-81
2021/05/28 00:58:39;;;;;;;3.10;2.30;;;;;;;9.49;100.00;99591.81;10455951;28;20229;-80
2021/05/28 01:03:58;;;;;;;10.63;4.63;;;;;;;9.57;100.00;99598.94;10454990;28;20202;-78
2021/05/28 01:09:17;;;;;;;3.33;3.07;;;;;;;9.57;100.00;99611.91;10455823;28;20634;-81
2021/05/28 01:14:36;;;;;;;17.67;5.80;;;;;;;9.57;100.00;99604.44;10455667;28;20597;-78
2021/05/28 01:19:55;;;;;;;6.50;5.00;;;;;;;9.55;100.00;99604.03;10454310;28;20179;-81
2021/05/28 01:25:14;;;;;;;6.13;4.17;;;;;;;9.51;100.00;99599.69;10454778;28;20294;-79
2021/05/28 01:30:34;;;;;;;3.60;3.30;;;;;;;9.59;100.00;99606.81;10454560;28;20612;-80
2021/05/28 01:35:55;;;;;;;11.83;3.57;;;;;;;9.61;100.00;99602.50;10452805;28;20215;-77
2021/05/28 01:41:14;;;;;;;2.83;2.63;;;;;;;9.60;100.00;99603.69;10458504;28;20191;-82
2021/05/28 01:46:34;;;;;;;9.13;5.90;;;;;;;9.70;100.00;99608.47;10463075;28;20218;-81
2021/05/28 01:51:53;;;;;;;4.87;3.90;;;;;;;9.70;100.00;99608.47;10461561;28;20251;-77
2021/05/28 01:57:13;;;;;;;8.33;3.63;;;;;;;9.79;100.00;99603.44;10461712;28;20175;-80
2021/05/28 02:02:32;;;;;;;7.60;5.00;;;;;;;9.82;100.00;99608.16;10462211;28;20207;-81
2021/05/28 02:07:51;;;;;;;4.13;3.27;;;;;;;9.81;100.00;99598.34;10460862;28;20179;-82
2021/05/28 02:13:10;;;;;;;5.20;3.40;;;;;;;9.82;100.00;99610.13;10462023;28;20175;-76
2021/05/28 02:18:30;;;;;;;6.03;4.60;;;;;;;9.83;100.00;99600.72;10461582;28;20275;-78
2021/05/28 02:23:49;;;;;;;4.53;3.80;;;;;;;9.82;100.00;99621.13;10459714;28;20211;-78
2021/05/28 02:29:08;;;;;;;3.73;3.33;;;;;;;9.73;100.00;99617.91;10460652;28;20223;-77
2021/05/28 02:34:27;;;;;;;6.80;4.40;;;;;;;9.76;100.00;99628.16;10460113;28;20171;-77
2021/05/28 02:39:46;;;;;;;7.20;4.07;;;;;;;9.77;100.00;99611.28;10460929;28;20250;-78
2021/05/28 02:45:06;;;;;;;3.20;2.90;;;;;;;9.72;100.00;99610.84;10460311;28;20234;-77
2021/05/28 02:50:26;;;;;;;2.83;2.63;;;;;;;9.67;100.00;99620.22;10458838;28;20175;-79
2021/05/28 02:55:45;;;;;;;5.40;4.23;;;;;;;9.71;100.00;99618.31;10460119;28;20179;-76
2021/05/28 03:01:04;;;;;;;4.43;3.47;;;;;;;9.67;100.00;99628.47;10460187;28;20693;-80
2021/05/28 03:06:24;;;;;;;4.10;3.70;;;;;;;9.63;100.00;99630.41;10458625;28;20179;-75
2021/05/28 03:11:43;;;;;;;7.20;3.93;;;;;;;9.60;100.00;99635.88;10458763;28;20187;-76
2021/05/28 03:17:02;;;;;;;5.00;3.40;;;;;;;9.56;100.00;99633.09;10459506;28;20202;-77
2021/05/28 03:22:33;;;;;;;5.00;4.33;;;;;;;9.63;100.00;99627.66;10457940;28;20231;-78
2021/05/28 03:27:53;;;;;;;2.47;1.50;;;;;;;9.73;100.00;99634.41;10458794;28;20220;-76
2021/05/28 03:33:12;;;;;;;5.60;2.53;;;;;;;9.74;100.00;99631.25;10459045;28;20175;-75
2021/05/28 03:38:31;;;;;;;3.93;3.63;;;;;;;9.74;100.00;99644.22;10457411;28;20179;-74
2021/05/28 03:43:50;;;;;;;8.93;4.13;;;;;;;9.71;100.00;99653.22;10457934;28;20264;-78
2021/05/28 03:49:09;;;;;;;13.53;5.10;;;;;;;9.74;100.00;99652.47;10456864;28;20183;-76
2021/05/28 03:54:29;;;;;;;5.90;3.93;;;;;;;9.72;100.00;99641.06;10457935;28;20184;-75
2021/05/28 03:59:47;;;;;;;5.50;3.57;;;;;;;9.76;100.00;99645.41;10457909;28;20183;-76
2021/05/28 04:05:08;;;;;;;5.83;3.50;;;;;;;9.73;100.00;99645.38;10455448;28;20685;-76
2021/05/28 04:10:27;;;;;;;7.43;5.10;;;;;;;9.73;100.00;99651.66;10457613;28;20175;-76
2021/05/28 04:15:46;;;;;;;4.97;3.23;;;;;;;9.77;100.00;99646.22;10457072;28;20254;-76
2021/05/28 04:21:05;;;;;;;7.27;2.67;;;;;;;9.73;100.00;99648.91;10455499;28;20195;-75
2021/05/28 04:26:24;;;;;;;4.70;2.80;;;;;;;9.73;100.00;99648.91;10455647;28;20167;-75
2021/05/28 04:31:43;;;;;;;6.93;4.13;;;;;;;9.79;100.00;99654.84;10456712;28;20191;-75
2021/05/28 04:37:02;;;;;;;5.83;3.37;;;;;;;9.76;100.00;99658.38;10455300;28;20602;-76
2021/05/28 04:42:21;;;;;;;5.07;4.60;;;;;;;9.84;100.00;99660.00;10455076;28;20290;-75
2021/05/28 04:47:40;;;;;;;7.53;3.70;;;;;;;9.86;100.00;99668.66;10456314;28;20600;-75
2021/05/28 04:53:03;;;;;;;3.80;2.70;;;;;;;9.96;100.00;99667.94;10454863;28;20172;-76
2021/05/28 04:58:22;;;;;;;4.87;4.00;;;;;;;10.04;100.00;99664.13;10455060;28;20184;-80
2021/05/28 05:03:41;;;;;;;7.63;2.70;;;;;;;10.10;100.00;99665.31;10455464;28;20207;-80
2021/05/28 05:09:00;;;;;;;3.50;3.17;;;;;;;10.24;100.00;99673.69;10454608;28;20214;-78
2021/05/28 05:14:19;;;;;;;5.83;3.97;;;;;;;10.45;100.00;99682.88;10455192;28;20179;-79
2021/05/28 05:19:38;;;;;;;5.37;2.70;;;;;;;10.57;100.00;99686.09;10462989;28;20206;-78
2021/05/28 05:24:57;;;;;;;3.83;3.37;;;;;;;10.60;100.00;99696.31;10463473;28;20238;-80
2021/05/28 05:30:16;;;;;;;5.37;3.67;;;;;;;10.68;100.00;99697.94;10463101;28;20218;-80
2021/05/28 05:35:36;;;;;;;5.37;3.80;;;;;;;10.90;100.00;99705.16;10462448;28;20179;-81
2021/05/28 05:40:55;;;;;;;7.17;3.40;;;;;;;10.99;100.00;99710.28;10463421;28;20255;-78
2021/05/28 05:46:14;;;;;;;5.50;3.10;;;;;;;11.00;100.00;99715.41;10463164;28;20270;-76
2021/05/28 05:51:32;;;;;;;3.93;2.47;;;;;;;11.07;100.00;99715.41;10461583;28;20328;-78
2021/05/28 05:56:51;;;;;;;5.47;3.00;;;;;;;11.11;100.00;99716.22;10462808;28;20181;-75
2021/05/28 06:02:10;;;;;;;3.17;2.70;;;;;;;11.33;100.00;99724.19;10462243;28;20207;-80
2021/05/28 06:07:29;;;;;;;4.53;3.20;;;;;;;11.43;100.00;99722.63;10460033;28;20179;-77
2021/05/28 06:12:48;;;;;;;2.93;2.60;;;;;;;11.54;100.00;99724.28;10462131;28;20172;-78
2021/05/28 06:18:07;;;;;;;4.43;3.53;;;;;;;11.66;100.00;99736.91;10462089;28;20179;-77
2021/05/28 06:23:26;;;;;;;2.60;2.40;;;;;;;11.87;100.00;99740.50;10460126;28;20203;-76
2021/05/28 06:28:45;;;;;;;6.60;3.70;;;;;;;11.98;100.00;99736.56;10460852;28;20215;-77
2021/05/28 06:34:04;;;;;;;3.10;2.17;;;;;;;12.21;100.00;99736.19;10461322;28;20171;-76
2021/05/28 06:39:23;;;;;;;4.03;3.60;;;;;;;12.24;100.00;99747.22;10460954;28;20259;-77
2021/05/28 06:44:42;;;;;;;5.40;2.77;;;;;;;12.31;100.00;99736.19;10459297;28;20677;-76
2021/05/28 06:50:03;;;;;;;5.70;3.33;;;;;;;12.56;100.00;99747.22;10459362;28;20171;-77
2021/05/28 06:55:22;;;;;;;4.90;3.27;;;;;;;12.90;100.00;99740.84;10460595;28;20171;-77
2021/05/28 07:00:41;;;;;;;5.90;3.33;;;;;;;13.37;100.00;99745.81;10459416;28;20192;-80
2021/05/28 07:06:00;;;;;;;3.20;2.90;;;;;;;13.35;100.00;99745.41;10458930;28;20175;-78
2021/05/28 07:11:19;;;;;;;5.87;4.00;;;;;;;13.97;100.00;99752.59;10460076;28;20571;-77
2021/05/28 07:16:37;;;;;;;4.90;3.73;;;;;;;14.17;100.00;99759.19;10459732;28;20179;-78
2021/05/28 07:21:56;;;;;;;2.43;2.23;;;;;;;14.34;100.00;99759.06;10458058;28;20674;-78
2021/05/28 07:27:15;;;;;;;7.90;2.30;;;;;;;14.29;100.00;99753.16;10458864;28;20592;-80
2021/05/28 07:32:36;;;;;;;4.17;2.90;;;;;;;14.51;100.00;99760.88;10458096;28;20187;-79
2021/05/28 07:37:55;;;;;;;3.40;2.60;;;;;;;14.84;100.00;99769.28;10456577;28;20171;-80
2021/05/28 07:43:14;;;;;;;4.43;2.90;;;;;;;15.39;100.00;99764.31;10458293;28;20293;-75
2021/05/28 07:48:33;;;;;;;4.67;2.00;;;;;;;15.62;95.57;99773.53;10458339;28;20175;-80
2021/05/28 07:53:52;;;;;;;1.93;1.77;;;;;;;15.56;97.29;99766.09;10441811;28;20179;-80
2021/05/28 07:59:11;;;;;;;3.73;1.63;;;;;;;15.73;92.42;99762.31;10457005;28;20176;-80
2021/05/28 08:04:31;;;;;;;2.50;1.63;;;;;;;15.64;88.56;99770.34;10456103;28;20587;-80
2021/05/28 08:09:50;;;;;;;3.70;2.17;;;;;;;15.73;90.78;99776.16;10456669;28;20215;-77
2021/05/28 08:15:09;;;;;;;2.00;1.80;;;;;;;15.78;91.01;99773.72;10457383;28;20615;-76
2021/05/28 08:20:29;;;;;;;3.33;2.30;;;;;;;15.85;90.30;99772.84;10456069;28;20179;-78
2021/05/28 08:25:51;;;;;;;2.33;2.13;;;;;;;16.32;91.42;99780.88;10455864;28;20183;-77
2021/05/28 08:31:11;;;;;;;2.50;1.73;;;;;;;16.90;89.04;99773.53;10456213;28;20705;-79
2021/05/28 08:36:30;;;;;;;4.33;2.00;;;;;;;17.28;87.11;99774.84;10454498;28;20179;-77
2021/05/28 08:41:49;;;;;;;1.87;1.40;;;;;;;17.53;68.87;99772.31;10456374;28;20289;-77
2021/05/28 08:47:12;;;;;;;2.60;2.40;;;;;;;17.98;64.90;99779.66;10456421;28;20529;-78
2021/05/28 08:52:31;;;;;;;9.73;2.07;;;;;;;17.73;65.11;99778.66;10454295;28;20508;-76
2021/05/28 08:57:50;;;;;;;2.00;1.80;;;;;;;17.53;65.27;99780.66;10455157;28;20175;-76
2021/05/28 09:03:19;;;;;;;3.00;1.37;;;;;;;17.08;66.15;99789.91;10454548;28;20215;-75
2021/05/28 09:08:38;;;;;;;1.47;1.30;;;;;;;16.62;66.73;99783.56;10454845;28;20206;-76
2021/05/28 09:13:57;;;;;;;1.57;1.47;;;;;;;16.20;67.01;99790.53;10455760;28;20179;-79
2021/05/28 09:19:22;;;;;;;1.90;1.30;;;;;;;16.25;65.26;99786.50;10453506;28;20646;-76
2021/05/28 09:24:43;;;;;;;1.50;1.20;;;;;;;16.17;67.08;99790.59;10454998;28;20207;-76
2021/05/28 09:30:10;;;;;;;1.10;0.83;;;;;;;16.02;68.63;99780.91;10455059;28;20855;-78
2021/05/28 09:35:30;;;;;;;1.63;1.23;;;;;;;16.21;67.43;99783.00;10454186;28;20176;-79
2021/05/28 09:40:50;;;;;;;2.40;2.20;;;;;;;16.35;66.30;99778.06;10454059;28;20592;-78
2021/05/28 09:46:12;;;;;;;9.40;1.30;;;;;;;16.31;66.08;99787.66;10455160;28;20197;-77
2021/05/28 09:51:31;;;;;;;2.60;2.30;;;;;;;16.64;64.93;99775.59;10452731;28;20171;-76
2021/05/28 09:56:50;;;;;;;1.20;1.07;;;;;;;16.80;64.94;99766.16;10454915;28;20211;-78
2021/05/28 10:02:22;;;;;;;1.83;1.27;;;;;;;16.77;63.62;99765.44;10457893;28;20206;-77
2021/05/28 10:07:41;;;;;;;1.23;1.10;;;;;;;17.28;62.27;99769.28;10460331;28;20184;-82
2021/05/28 10:13:09;;;;;;;1.40;1.07;;;;;;;17.94;62.39;99759.50;10462284;28;20175;-77
2021/05/28 10:18:29;;;;;;;1.43;1.33;;;;;;;19.03;55.31;99752.78;10461945;28;20175;-76
2021/05/28 10:23:48;;;;;;;1.40;1.00;;;;;;;18.77;54.32;99753.13;10460004;28;20235;-76
2021/05/28 10:29:07;;;;;;;1.10;0.80;;;;;;;19.65;52.33;99750.25;10461142;28;20604;-76
2021/05/28 10:34:28;;;;;;;1.20;1.07;;;;;;;20.89;49.73;99752.25;10460247;28;20175;-79
2021/05/28 10:39:48;;;;;;;1.10;0.80;;;;;;;20.96;47.69;99757.59;10461137;28;20658;-76
2021/05/28 10:45:07;;;;;;;2.50;1.30;;;;;;;20.93;48.51;99755.69;10460469;28;20203;-78
2021/05/28 10:50:45;;;;;;;1.13;1.03;;;;;;;19.71;51.00;99764.41;10459542;28;20195;-77
2021/05/28 10:56:12;;;;;;;1.27;0.83;;;;;;;19.93;49.10;99751.41;10460644;28;20679;-78
2021/05/28 11:01:31;;;;;;;2.17;1.20;;;;;;;21.11;47.87;99755.84;10460271;28;20203;-80
2021/05/28 11:06:56;;;;;;;2.30;1.47;;;;;;;20.11;48.86;99758.78;10458901;28;20199;-75
2021/05/28 11:12:24;;;;;;;7.40;3.50;;;;;;;20.28;49.85;99746.28;10458995;28;20176;-77
2021/05/28 11:18:03;;;;;;;3.30;1.90;;;;;;;20.29;47.87;99747.84;10459784;28;20187;-78
2021/05/28 11:23:23;;;;;;;2.67;2.13;;;;;;;20.01;48.14;99745.16;10456636;28;20204;-75
2021/05/28 11:28:50;;;;;;;2.23;1.30;;;;;;;19.90;48.22;99739.09;10458690;28;20219;-77
2021/05/28 11:34:10;;;;;;;1.60;1.23;;;;;;;19.94;51.05;99739.00;10458877;28;20203;-76
2021/05/28 11:39:33;;;;;;;1.30;1.20;;;;;;;20.23;51.04;99738.47;10457716;28;20194;-77
2021/05/28 11:44:52;;;;;;;1.20;1.07;;;;;;;20.34;45.98;99733.31;10458007;28;20219;-77
2021/05/28 11:50:17;;;;;;;1.67;1.57;;;;;;;20.38;48.16;99733.19;10456912;28;20638;-75
2021/05/28 11:55:48;;;;;;;1.20;0.93;;;;;;;21.93;40.68;99719.56;10458245;28;20187;-79
2021/05/28 12:01:08;;;;;;;1.10;0.90;;;;;;;22.88;38.50;99712.38;10457959;28;20175;-77
2021/05/28 12:06:34;;;;;;;1.10;0.73;;;;;;;23.74;36.84;99711.72;10456436;28;20258;-76
2021/05/28 12:11:58;;;;;;;1.10;0.77;;;;;;;22.92;34.81;99707.38;10457591;28;20171;-78
2021/05/28 12:17:31;;;;;;;1.20;0.77;;;;;;;23.04;34.41;99698.06;10457260;28;20227;-83
2021/05/28 12:22:59;;;;;;;1.00;0.90;;;;;;;22.08;36.94;99696.13;10455590;28;20215;-79
2021/05/28 12:28:24;;;;;;;1.17;0.87;;;;;;;21.19;40.48;99699.19;10456701;28;20215;-79
2021/05/28 12:33:50;;;;;;;1.10;0.77;;;;;;;20.96;41.80;99696.03;10456870;28;20175;-79
2021/05/28 12:39:20;;;;;;;2.43;0.80;;;;;;;21.40;40.67;99687.19;10455126;28;20213;-79
2021/05/28 12:44:39;;;;;;;1.40;0.90;;;;;;;21.84;38.46;99689.47;10455814;28;20203;-80
2021/05/28 12:49:58;;;;;;;1.10;0.70;;;;;;;23.04;40.06;99686.03;10455012;28;20598;-77
2021/05/28 12:55:17;;;;;;;1.10;0.97;;;;;;;23.28;38.06;99686.97;10456169;28;20179;-78
2021/05/28 13:00:37;;;;;;;1.10;0.97;;;;;;;22.65;38.22;99693.34;10454981;28;20188;-79
2021/05/28 13:05:56;;;;;;;1.10;0.80;;;;;;;21.33;43.06;99692.25;10454012;28;20202;-77
2021/05/28 13:11:16;;;;;;;0.90;0.60;;;;;;;20.24;47.51;99692.53;10455860;28;20175;-83
2021/05/28 13:16:34;;;;;;;1.20;1.10;;;;;;;20.48;47.20;99693.72;10455761;28;20178;-76
2021/05/28 13:21:56;;;;;;;3.73;0.90;;;;;;;21.02;45.40;99691.41;10454050;28;20211;-77
2021/05/28 13:27:21;;;;;;;1.10;0.80;;;;;;;21.31;43.16;99681.53;10455267;28;20227;-78
2021/05/28 13:32:42;;;;;;;1.00;0.80;;;;;;;22.56;40.43;99673.69;10455100;28;20187;-79
2021/05/28 13:38:01;;;;;;;1.00;0.70;;;;;;;23.81;35.72;99669.22;10459065;28;20175;-78
2021/05/28 13:43:23;;;;;;;1.00;0.77;;;;;;;24.23;38.38;99671.53;10463030;28;20215;-76
2021/05/28 13:48:43;;;;;;;1.10;0.90;;;;;;;23.49;37.02;99667.91;10463284;28;20167;-77
2021/05/28 13:54:02;;;;;;;4.83;1.00;;;;;;;22.58;38.32;99664.81;10461642;28;20175;-79
2021/05/28 13:59:21;;;;;;;2.70;0.80;;;;;;;23.33;37.17;99661.06;10462225;28;20179;-77
2021/05/28 14:04:40;;;;;;;1.90;1.80;;;;;;;22.77;37.92;99661.53;10460383;28;20210;-75
2021/05/28 14:09:59;;;;;;;1.33;1.10;;;;;;;22.46;37.91;99657.31;10461580;28;20230;-74
2021/05/28 14:15:19;;;;;;;1.50;1.10;;;;;;;22.47;38.48;99644.84;10461675;28;20207;-74
2021/05/28 14:20:40;;;;;;;5.00;1.00;;;;;;;21.62;40.84;99648.75;10459183;28;20180;-74
2021/05/28 14:25:59;;;;;;;3.20;1.83;;;;;;;21.35;41.08;99654.19;10459793;28;20211;-75
2021/05/28 14:31:18;;;;;;;6.60;1.40;;;;;;;21.08;41.93;99648.41;10460647;28;20206;-76
2021/05/28 14:36:37;;;;;;;1.93;1.83;;;;;;;21.48;41.89;99646.50;10460310;28;20171;-79
2021/05/28 14:41:56;;;;;;;1.13;0.90;;;;;;;23.30;36.53;99640.34;10460853;28;20662;-75
2021/05/28 14:47:15;;;;;;;1.97;1.10;;;;;;;24.28;36.42;99617.44;10459807;28;20215;-75
2021/05/28 14:52:34;;;;;;;1.23;1.00;;;;;;;25.31;31.49;99614.44;10458370;28;20175;-78
2021/05/28 14:57:53;;;;;;;1.10;0.93;;;;;;;24.09;30.53;99617.25;10460306;28;20528;-77
2021/05/28 15:03:13;;;;;;;1.87;0.80;;;;;;;23.16;32.77;99614.94;10459788;28;20207;-78
2021/05/28 15:08:34;;;;;;;2.00;0.90;;;;;;;24.79;33.35;99608.81;10458551;28;20179;-77
2021/05/28 15:13:53;;;;;;;1.10;0.80;;;;;;;25.26;30.95;99612.28;10459551;28;20172;-76
2021/05/28 15:19:12;;;;;;;1.77;1.30;;;;;;;24.44;31.32;99613.47;10458488;28;20176;-75
2021/05/28 15:24:32;;;;;;;1.50;1.40;;;;;;;23.17;32.59;99610.88;10458785;28;20199;-78
2021/05/28 15:29:51;;;;;;;1.37;1.27;;;;;;;22.53;35.05;99609.34;10457384;28;20290;-78
2021/05/28 15:35:10;;;;;;;1.10;0.87;;;;;;;21.92;36.23;99597.53;10456280;28;20537;-78
2021/05/28 15:40:31;;;;;;;1.40;0.83;;;;;;;22.28;36.17;99600.41;10458692;28;20203;-78
2021/05/28 15:45:50;;;;;;;1.50;1.13;;;;;;;23.43;33.75;99593.94;10458059;28;20206;-77
2021/05/28 15:51:09;;;;;;;1.20;0.77;;;;;;;24.06;32.18;99599.31;10455888;28;20207;-79
2021/05/28 15:56:28;;;;;;;1.30;0.90;;;;;;;24.46;32.87;99588.44;10457899;28;20176;-76
2021/05/28 16:01:47;;;;;;;2.90;1.30;;;;;;;23.28;32.61;99581.06;10457560;28;20195;-78
2021/05/28 16:07:06;;;;;;;4.10;1.23;;;;;;;21.69;36.63;99576.44;10456621;28;20175;-78
2021/05/28 16:12:25;;;;;;;1.30;1.03;;;;;;;21.49;36.68;99589.25;10457713;28;20171;-77
2021/05/28 16:17:44;;;;;;;2.87;1.50;;;;;;;21.27;38.68;99582.13;10457453;28;20571;-76
2021/05/28 16:23:04;;;;;;;1.20;1.00;;;;;;;21.97;36.19;99574.50;10455896;28;20709;-75
2021/05/28 16:28:23;;;;;;;1.40;1.00;;;;;;;22.13;34.62;99568.63;10456808;28;20215;-75
2021/05/28 16:33:42;;;;;;;1.20;1.07;;;;;;;22.52;35.05;99562.91;10455948;28;20595;-76
2021/05/28 16:39:05;;;;;;;1.70;1.30;;;;;;;22.37;34.37;99561.19;10455336;28;20669;-76
2021/05/28 16:44:24;;;;;;;1.23;1.13;;;;;;;23.05;33.02;99564.13;10456000;28;20215;-75
2021/05/28 16:49:43;;;;;;;1.33;1.20;;;;;;;22.36;33.87;99545.63;10455147;28;20271;-74
2021/05/28 16:55:04;;;;;;;1.37;0.90;;;;;;;21.17;35.92;99564.53;10456227;28;20184;-74
2021/05/28 17:00:24;;;;;;;1.20;1.00;;;;;;;20.92;35.04;99564.69;10454611;28;20171;-75
2021/05/28 17:05:43;;;;;;;1.37;1.07;;;;;;;20.40;36.20;99572.19;10453003;28;20285;-75
2021/05/28 17:11:11;;;;;;;1.10;0.87;;;;;;;20.07;36.16;99578.59;10454993;28;20171;-76
2021/05/28 17:16:31;;;;;;;1.30;1.03;;;;;;;19.75;41.60;99573.22;10455770;28;20179;-74
2021/05/28 17:21:50;;;;;;;1.37;1.10;;;;;;;19.44;41.15;99579.84;10453560;28;20203;-74
2021/05/28 17:27:09;;;;;;;1.50;1.13;;;;;;;19.22;43.12;99565.00;10455136;28;20211;-75
2021/05/28 17:32:28;;;;;;;1.10;0.80;;;;;;;19.19;43.16;99574.25;10454855;28;20179;-74
2021/05/28 17:37:47;;;;;;;1.10;0.90;;;;;;;18.84;42.49;99580.84;10454134;28;20199;-74
2021/05/28 17:43:06;;;;;;;1.87;1.43;;;;;;;18.05;44.32;99583.81;10454357;28;20283;-75
2021/05/28 17:48:25;;;;;;;1.10;0.90;;;;;;;17.74;45.50;99588.97;10455081;28;20183;-77
2021/05/28 17:53:44;;;;;;;1.47;0.97;;;;;;;17.61;47.68;99592.88;10453491;28;20283;-74
2021/05/28 17:59:03;;;;;;;1.47;1.37;;;;;;;17.53;47.57;99596.25;10453434;28;20167;-74
2021/05/28 18:04:22;;;;;;;1.93;1.23;;;;;;;17.40;49.25;99593.38;10452987;28;20700;-75
2021/05/28 18:09:41;;;;;;;1.43;1.00;;;;;;;17.26;49.22;99592.88;10454793;28;20207;-75
2021/05/28 18:15:00;;;;;;;1.13;0.90;;;;;;;17.11;50.46;99586.88;10454301;28;20187;-78
2021/05/28 18:20:22;;;;;;;3.47;1.23;;;;;;;17.20;52.76;99595.41;10452996;28;20693;-78
2021/05/28 18:25:41;;;;;;;1.50;1.40;;;;;;;17.04;53.25;99584.22;10460258;28;20211;-77
2021/05/28 18:31:00;;;;;;;2.73;1.30;;;;;;;16.87;53.53;99590.97;10460911;28;20333;-77
2021/05/28 18:36:19;;;;;;;1.97;1.23;;;;;;;16.83;54.40;99593.00;10459787;28;20203;-78
2021/05/28 18:41:43;;;;;;;4.83;1.73;;;;;;;16.77;56.28;99600.28;10459901;28;20657;-76
2021/05/28 18:47:03;;;;;;;1.37;1.27;;;;;;;16.54;57.19;99605.13;10459843;28;20638;-75
2021/05/28 18:52:22;;;;;;;2.07;1.93;;;;;;;16.39;58.28;99600.28;10458943;28;20250;-78
2021/05/28 18:57:41;;;;;;;16.13;1.50;;;;;;;16.18;61.88;99615.31;10460635;28;20183;-76
2021/05/28 19:02:59;;;;;;;1.30;1.20;;;;;;;15.97;64.29;99612.88;10460377;28;20247;-76
2021/05/28 19:08:18;;;;;;;1.83;1.50;;;;;;;15.64;65.02;99615.81;10458873;28;20175;-76
2021/05/28 19:13:45;;;;;;;1.90;1.67;;;;;;;15.27;66.54;99635.34;10460169;28;20630;-74
2021/05/28 19:19:04;;;;;;;1.40;1.30;;;;;;;15.12;67.80;99632.38;10459799;28;20254;-77
2021/05/28 19:24:23;;;;;;;4.27;1.23;;;;;;;14.90;68.56;99633.84;10459390;28;20580;-76
2021/05/28 19:29:42;;;;;;;3.30;2.00;;;;;;;14.74;70.49;99644.75;10459012;28;20275;-75
2021/05/28 19:35:03;;;;;;;2.13;1.50;;;;;;;14.49;71.08;99647.00;10457112;28;20176;-74
2021/05/28 19:40:24;;;;;;;3.73;2.33;;;;;;;14.32;71.09;99647.19;10459089;28;20203;-75
2021/05/28 19:45:45;;;;;;;1.50;1.40;;;;;;;14.11;72.79;99650.94;10458129;28;20207;-75
2021/05/28 19:51:06;;;;;;;3.30;1.93;;;;;;;13.99;71.89;99651.38;10456272;28;20183;-74
2021/05/28 19:56:25;;;;;;;2.33;1.50;;;;;;;14.03;70.78;99646.63;10457179;28;20175;-74
2021/05/28 20:01:45;;;;;;;1.50;1.40;;;;;;;13.91;71.81;99663.72;10457988;28;20550;-74
2021/05/28 20:07:04;;;;;;;2.27;1.73;;;;;;;13.89;72.30;99660.56;10455430;28;20543;-74
2021/05/28 20:17:42;;;;;;;2.47;1.43;;;;;;;13.65;76.82;99689.16;10457083;28;20175;-76
2021/05/28 20:23:01;;;;;;;1.47;1.37;;;;;;;13.65;78.97;99682.88;10455709;28;20294;-77
2021/05/28 20:28:20;;;;;;;1.73;1.63;;;;;;;13.46;78.54;99691.66;10455688;28;20468;-76
2021/05/28 20:33:40;;;;;;;4.40;1.20;;;;;;;13.43;78.28;99686.16;10455553;28;20179;-73
2021/05/28 20:39:00;;;;;;;2.60;1.50;;;;;;;13.36;82.46;99691.72;10454768;28;20225;-75
2021/05/28 20:44:20;;;;;;;2.23;2.00;;;;;;;13.20;85.44;99691.41;10454890;28;20272;-75
2021/05/28 20:49:38;;;;;;;1.70;1.27;;;;;;;13.02;86.26;99680.44;10455207;28;20473;-77
2021/05/28 20:54:58;;;;;;;3.23;2.83;;;;;;;12.74;88.23;99701.81;10456308;28;20180;-74
2021/05/28 21:00:28;;;;;;;5.87;4.03;;;;;;;12.63;88.70;99694.75;10455236;28;20175;-73
2021/05/28 21:05:48;;;;;;;2.53;2.33;;;;;;;12.60;86.84;99696.31;10454031;28;20564;-78
2021/05/28 21:11:08;;;;;;;2.07;1.60;;;;;;;12.44;85.78;99701.47;10454928;28;20180;-73
2021/05/28 21:16:28;;;;;;;2.63;2.43;;;;;;;12.36;85.38;99696.38;10455741;28;20179;-74
2021/05/28 21:21:47;;;;;;;1.87;1.77;;;;;;;12.28;85.52;99701.09;10454421;28;20713;-74
2021/05/28 21:27:06;;;;;;;2.33;2.23;;;;;;;12.19;90.63;99700.72;10455339;28;20219;-74
2021/05/28 21:32:25;;;;;;;1.30;1.20;;;;;;;11.84;92.92;99710.16;10455494;28;20685;-75
2021/05/28 21:37:45;;;;;;;3.20;2.20;;;;;;;11.80;86.48;99710.16;10454034;28;20208;-74
2021/05/28 21:43:04;;;;;;;2.57;1.90;;;;;;;11.85;83.86;99711.75;10454919;28;20608;-74
2021/05/28 21:48:24;;;;;;;2.70;1.50;;;;;;;11.81;83.80;99716.44;10455259;28;20175;-75
2021/05/28 21:53:43;;;;;;;2.00;1.50;;;;;;;11.77;84.52;99721.97;10453774;28;20172;-75
2021/05/28 21:59:02;;;;;;;1.97;1.50;;;;;;;11.75;84.11;99720.78;10459905;28;20532;-77
2021/05/28 22:04:21;;;;;;;1.60;1.37;;;;;;;11.71;85.93;99728.25;10460503;28;20689;-73
2021/05/28 22:09:40;;;;;;;2.30;1.47;;;;;;;11.59;87.15;99743.16;10461537;28;20176;-73
2021/05/28 22:14:59;;;;;;;3.03;1.43;;;;;;;11.40;88.92;99740.75;10462630;28;20276;-74
2021/05/28 22:20:20;;;;;;;1.70;1.30;;;;;;;11.33;89.59;99748.19;10459803;28;20175;-74
2021/05/28 22:25:39;;;;;;;1.50;1.40;;;;;;;11.11;91.89;99739.03;10461638;28;20215;-74
2021/05/28 22:36:46;;;;;;;1.00;0.90;;;;;;;10.93;95.35;99748.41;10472829;28;20215;-74
2021/05/28 22:42:10;;;;;;;6.73;1.63;;;;;;;10.82;97.39;99744.81;10461333;28;20661;-75
2021/05/28 22:47:29;;;;;;;1.53;1.33;;;;;;;10.70;100.00;99753.38;10461094;28;20179;-73
2021/05/28 22:52:49;;;;;;;2.83;1.40;;;;;;;10.61;100.00;99754.91;10459702;28;20262;-73
2021/05/28 22:58:08;;;;;;;2.07;1.60;;;;;;;10.57;100.00;99751.31;10460621;28;20529;-73
2021/05/28 23:03:27;;;;;;;1.60;1.50;;;;;;;10.55;100.00;99750.91;10459295;28;20693;-73
2021/05/28 23:14:10;;;;;;;2.60;1.30;;;;;;;10.27;100.00;99741.66;10459679;28;20575;-72
2021/05/28 23:19:28;;;;;;;1.87;1.10;;;;;;;10.16;100.00;99749.06;10457751;28;20206;-73
2021/05/28 23:24:47;;;;;;;2.50;1.53;;;;;;;9.93;100.00;99732.72;10459188;28;20207;-75
2021/05/28 23:30:07;;;;;;;1.97;1.87;;;;;;;9.94;100.00;99739.78;10459133;28;20219;-77
2021/05/28 23:35:26;;;;;;;1.37;1.17;;;;;;;9.90;100.00;99738.97;10457774;28;20198;-74
2021/05/28 23:40:48;;;;;;;2.23;1.67;;;;;;;9.91;100.00;99737.03;10458182;28;20567;-75
2021/05/28 23:46:07;;;;;;;1.23;1.03;;;;;;;9.89;100.00;99736.59;10457448;28;20207;-75
2021/05/28 23:51:28;;;;;;;1.50;1.40;;;;;;;9.72;100.00;99726.22;10456445;28;20172;-77
2021/05/28 23:56:47;;;;;;;2.73;1.27;;;;;;;9.54;100.00;99728.81;10458399;28;20172;-76
